createdAt,value
2022-08-20T00:00:06.752Z,5.82
2022-08-20T00:02:44.021Z,6.55
2022-08-20T00:05:11.580Z,5.60
2022-08-20T00:07:38.605Z,5.43
2022-08-20T00:10:07.133Z,5.97
2022-08-20T00:12:35.377Z,6.47
2022-08-20T00:15:05.375Z,6.03
2022-08-20T00:17:37.258Z,5.88
2022-08-20T00:20:10.400Z,5.57
2022-08-20T00:22:37.444Z,6.38
2022-08-20T00:25:06.672Z,5.60
2022-08-20T00:27:33.544Z,5.70
2022-08-20T00:30:00.329Z,5.43
2022-08-20T00:32:28.379Z,5.70
2022-08-20T00:34:55.572Z,5.80
2022-08-20T00:37:22.421Z,6.22
2022-08-20T00:39:49.227Z,6.47
2022-08-20T00:42:16.057Z,5.90
2022-08-20T00:44:47.136Z,5.40
2022-08-20T00:47:14.160Z,6.70
2022-08-20T00:49:42.353Z,6.05
2022-08-20T00:52:17.832Z,5.78
2022-08-20T00:54:53.571Z,5.38
2022-08-20T00:57:43.895Z,5.57
2022-08-20T01:00:22.475Z,5.85
2022-08-20T01:02:50.675Z,6.07
2022-08-20T01:05:18.670Z,5.32
2022-08-20T01:07:45.932Z,6.15
2022-08-20T01:10:19.297Z,5.40
2022-08-20T01:12:48.633Z,5.45
2022-08-20T01:15:30.722Z,5.50
2022-08-20T01:18:00.354Z,5.68
2022-08-20T01:20:47.028Z,6.18
2022-08-20T01:23:38.520Z,6.68
2022-08-20T01:26:07.095Z,5.63
2022-08-20T01:28:56.668Z,6.38
2022-08-20T01:31:27.103Z,6.63
2022-08-20T01:33:56.132Z,5.97
2022-08-20T01:36:26.805Z,5.95
2022-08-20T01:38:54.686Z,5.97
2022-08-20T01:41:45.985Z,5.78
2022-08-20T01:44:16.917Z,5.97
2022-08-20T01:46:47.757Z,5.68
2022-08-20T01:49:23.000Z,6.10
2022-08-20T01:51:53.975Z,5.55
2022-08-20T01:54:22.122Z,5.47
2022-08-20T01:57:17.385Z,5.47
2022-08-20T01:59:45.304Z,5.68
2022-08-20T02:02:13.223Z,5.40
2022-08-20T02:04:41.256Z,5.32
2022-08-20T02:07:15.384Z,5.45
2022-08-20T02:09:42.561Z,5.45
2022-08-20T02:12:11.566Z,6.35
2022-08-20T02:14:45.923Z,5.75
2022-08-20T02:17:14.446Z,5.60
2022-08-20T02:20:03.904Z,5.43
2022-08-20T02:22:40.027Z,5.90
2022-08-20T02:25:12.585Z,5.93
2022-08-20T02:27:42.251Z,5.70
2022-08-20T02:32:56.289Z,5.55
2022-08-20T02:35:23.803Z,5.72
2022-08-20T02:37:50.685Z,5.65
2022-08-20T02:40:30.370Z,6.13
2022-08-20T02:42:59.918Z,5.65
2022-08-20T02:45:27.689Z,5.97
2022-08-20T02:47:56.911Z,6.20
2022-08-20T02:50:26.153Z,6.30
2022-08-20T02:52:53.616Z,6.07
2022-08-20T02:55:27.181Z,5.32
2022-08-20T02:58:01.321Z,6.22
2022-08-20T03:00:38.033Z,5.93
2022-08-20T03:03:10.670Z,5.97
2022-08-20T03:05:40.295Z,5.53
2022-08-20T03:08:09.142Z,5.82
2022-08-20T03:10:37.975Z,5.90
2022-08-20T03:13:05.927Z,5.45
2022-08-20T03:15:34.415Z,5.90
2022-08-20T03:18:01.622Z,5.93
2022-08-20T03:20:28.959Z,6.07
2022-08-20T03:22:56.318Z,5.30
2022-08-20T03:25:23.710Z,5.40
2022-08-20T03:27:54.842Z,6.10
2022-08-20T03:30:24.444Z,5.93
2022-08-20T03:32:51.991Z,5.20
2022-08-20T03:35:22.281Z,5.47
2022-08-20T03:37:50.125Z,5.47
2022-08-20T03:40:21.649Z,5.60
2022-08-20T03:42:48.768Z,5.70
2022-08-20T03:45:20.361Z,5.32
2022-08-20T03:47:48.618Z,5.75
2022-08-20T03:50:22.740Z,5.60
2022-08-20T03:52:55.069Z,5.53
2022-08-20T03:55:23.836Z,5.15
2022-08-20T03:57:53.822Z,5.93
2022-08-20T04:00:29.289Z,6.18
2022-08-20T04:02:57.371Z,5.80
2022-08-20T04:05:25.636Z,6.03
2022-08-20T04:07:57.184Z,5.55
2022-08-20T04:10:31.833Z,5.47
2022-08-20T04:12:58.882Z,5.85
2022-08-20T04:15:26.850Z,5.25
2022-08-20T04:17:54.385Z,5.72
2022-08-20T04:20:26.260Z,6.00
2022-08-20T04:22:59.226Z,6.07
2022-08-20T04:25:29.781Z,5.72
2022-08-20T04:28:02.242Z,5.30
2022-08-20T04:30:30.087Z,5.53
2022-08-20T04:32:57.310Z,6.35
2022-08-20T04:35:24.822Z,5.93
2022-08-20T04:38:04.803Z,6.32
2022-08-20T04:40:50.686Z,5.28
2022-08-20T04:43:19.858Z,5.97
2022-08-20T04:45:47.330Z,5.90
2022-08-20T04:48:15.405Z,6.45
2022-08-20T04:50:45.312Z,5.85
2022-08-20T04:53:14.336Z,5.40
2022-08-20T04:55:43.147Z,5.95
2022-08-20T04:58:14.653Z,5.93
2022-08-20T05:00:41.663Z,5.95
2022-08-20T05:03:09.158Z,6.00
2022-08-20T05:05:36.258Z,6.38
2022-08-20T05:08:04.350Z,6.38
2022-08-20T05:10:31.932Z,6.10
2022-08-20T05:12:59.122Z,6.35
2022-08-20T05:15:26.671Z,6.43
2022-08-20T05:18:00.915Z,6.70
2022-08-20T05:20:31.530Z,6.72
2022-08-20T05:22:59.941Z,6.35
2022-08-20T05:25:31.628Z,6.90
2022-08-20T05:30:34.152Z,6.13
2022-08-20T05:33:02.127Z,6.57
2022-08-20T05:35:30.891Z,6.50
2022-08-20T05:37:58.034Z,6.45
2022-08-20T05:40:25.199Z,6.93
2022-08-20T05:42:53.942Z,7.10
2022-08-20T05:45:22.054Z,6.05
2022-08-20T05:47:49.487Z,6.85
2022-08-20T05:50:24.341Z,6.20
2022-08-20T05:52:51.307Z,7.57
2022-08-20T05:55:18.391Z,7.38
2022-08-20T05:57:46.048Z,7.25
2022-08-20T06:00:14.821Z,6.50
2022-08-20T06:03:01.225Z,7.00
2022-08-20T06:05:28.455Z,6.95
2022-08-20T06:07:57.962Z,7.05
2022-08-20T06:10:35.854Z,7.40
2022-08-20T06:13:03.384Z,6.57
2022-08-20T06:15:31.759Z,7.28
2022-08-20T06:17:59.214Z,7.35
2022-08-20T06:20:29.149Z,6.93
2022-08-20T06:22:56.387Z,7.05
2022-08-20T06:25:23.596Z,7.05
2022-08-20T06:27:50.687Z,6.95
2022-08-20T06:30:18.350Z,7.20
2022-08-20T06:32:45.940Z,7.03
2022-08-20T06:35:18.042Z,7.25
2022-08-20T06:37:46.874Z,7.53
2022-08-20T06:40:19.696Z,7.50
2022-08-20T06:42:48.847Z,7.43
2022-08-20T06:45:28.675Z,7.28
2022-08-20T06:48:00.038Z,7.22
2022-08-20T06:50:43.186Z,7.35
2022-08-20T06:53:16.618Z,7.82
2022-08-20T06:55:48.809Z,7.35
2022-08-20T06:58:26.802Z,7.80
2022-08-20T07:01:09.467Z,7.80
2022-08-20T07:03:38.499Z,8.73
2022-08-20T07:06:06.806Z,8.48
2022-08-20T07:08:34.600Z,8.98
2022-08-20T07:11:02.302Z,10.10
2022-08-20T07:13:29.746Z,12.00
2022-08-20T07:15:56.786Z,9.20
2022-08-20T07:18:28.399Z,11.30
2022-08-20T07:20:57.650Z,11.43
2022-08-20T07:23:26.525Z,9.55
2022-08-20T07:25:55.793Z,10.10
2022-08-20T07:28:26.103Z,12.32
2022-08-20T07:31:13.291Z,12.65
2022-08-20T07:33:42.109Z,11.40
2022-08-20T07:36:12.539Z,11.93
2022-08-20T07:38:39.775Z,11.60
2022-08-20T07:41:13.526Z,10.82
2022-08-20T07:43:42.679Z,11.18
2022-08-20T07:46:10.357Z,11.45
2022-08-20T07:48:40.163Z,10.18
2022-08-20T07:51:09.091Z,11.38
2022-08-20T07:53:38.996Z,11.15
2022-08-20T07:56:11.334Z,10.27
2022-08-20T07:58:42.836Z,10.63
2022-08-20T08:01:11.637Z,10.80
2022-08-20T08:03:49.174Z,11.25
2022-08-20T08:06:28.626Z,10.63
2022-08-20T08:09:11.636Z,10.57
2022-08-20T08:11:46.945Z,10.73
2022-08-20T08:14:27.004Z,10.68
2022-08-20T08:16:57.422Z,11.15
2022-08-20T08:19:27.502Z,11.32
2022-08-20T08:21:58.614Z,12.02
2022-08-20T08:24:28.491Z,11.75
2022-08-20T08:26:55.800Z,12.27
2022-08-20T08:29:23.328Z,12.57
2022-08-20T08:31:50.458Z,11.30
2022-08-20T08:34:17.631Z,12.18
2022-08-20T08:36:44.947Z,11.70
2022-08-20T08:39:11.986Z,13.13
2022-08-20T08:41:48.571Z,13.70
2022-08-20T08:44:29.500Z,13.30
2022-08-20T08:47:03.017Z,14.30
2022-08-20T08:49:37.583Z,12.63
2022-08-20T08:52:28.391Z,13.95
2022-08-20T08:54:59.327Z,14.02
2022-08-20T08:57:26.730Z,14.65
2022-08-20T09:00:04.688Z,13.52
2022-08-20T09:02:33.873Z,12.85
2022-08-20T09:05:04.695Z,13.20
2022-08-20T09:07:33.668Z,15.10
2022-08-20T09:10:02.499Z,14.18
2022-08-20T09:12:29.622Z,13.55
2022-08-20T09:14:57.753Z,13.35
2022-08-20T09:17:25.054Z,12.73
2022-08-20T09:19:52.610Z,13.77
2022-08-20T09:22:23.245Z,12.90
2022-08-20T09:24:51.314Z,13.37
2022-08-20T09:27:18.996Z,13.18
2022-08-20T09:29:49.264Z,13.15
2022-08-20T09:32:21.039Z,15.43
2022-08-20T09:34:59.076Z,13.73
2022-08-20T09:37:33.606Z,11.95
2022-08-20T09:40:05.473Z,12.27
2022-08-20T09:42:38.887Z,11.32
2022-08-20T09:45:10.863Z,12.48
2022-08-20T09:47:39.836Z,11.98
2022-08-20T09:50:22.420Z,11.57
2022-08-20T09:52:53.730Z,10.80
2022-08-20T09:55:31.575Z,11.68
2022-08-20T09:57:59.732Z,12.18
2022-08-20T10:00:27.043Z,10.85
2022-08-20T10:02:54.415Z,11.68
2022-08-20T10:05:21.547Z,11.75
2022-08-20T10:07:49.900Z,10.50
2022-08-20T10:10:16.981Z,10.40
2022-08-20T10:12:44.191Z,11.60
2022-08-20T10:15:11.656Z,11.38
2022-08-20T10:17:43.142Z,12.13
2022-08-20T10:22:38.617Z,10.70
2022-08-20T10:25:06.204Z,10.57
2022-08-20T10:27:33.608Z,11.35
2022-08-20T10:30:00.702Z,10.93
2022-08-20T10:32:28.202Z,10.80
2022-08-20T10:34:55.207Z,11.75
2022-08-20T10:37:23.934Z,11.82
2022-08-20T10:39:51.402Z,10.15
2022-08-20T10:42:19.404Z,11.43
2022-08-20T10:44:47.128Z,12.23
2022-08-20T10:47:25.800Z,11.15
2022-08-20T10:49:58.120Z,11.02
2022-08-20T10:52:26.868Z,10.60
2022-08-20T10:54:55.081Z,11.75
2022-08-20T10:57:29.995Z,9.55
2022-08-20T10:59:59.300Z,11.23
2022-08-20T11:02:28.038Z,9.82
2022-08-20T11:04:55.927Z,10.88
2022-08-20T11:07:49.826Z,9.82
2022-08-20T11:10:29.144Z,10.25
2022-08-20T11:12:56.769Z,9.68
2022-08-20T11:15:24.131Z,9.38
2022-08-20T11:17:51.335Z,9.43
2022-08-20T11:20:20.897Z,8.20
2022-08-20T11:22:48.168Z,9.35
2022-08-20T11:25:15.502Z,10.27
2022-08-20T11:27:45.344Z,9.48
2022-08-20T11:30:17.576Z,10.48
2022-08-20T11:32:44.633Z,9.98
2022-08-20T11:35:40.644Z,9.70
2022-08-20T11:37:59.956Z,10.20
2022-08-20T11:40:28.076Z,9.75
2022-08-20T11:43:14.065Z,9.52
2022-08-20T11:45:42.245Z,9.15
2022-08-20T11:48:09.334Z,10.43
2022-08-20T11:50:36.556Z,9.43
2022-08-20T11:53:03.640Z,11.23
2022-08-20T11:55:31.188Z,9.23
2022-08-20T11:58:00.914Z,10.18
2022-08-20T12:00:32.859Z,10.25
2022-08-20T12:03:09.065Z,10.77
2022-08-20T12:05:44.411Z,11.32
2022-08-20T12:08:27.270Z,11.55
2022-08-20T12:10:57.879Z,10.27
2022-08-20T12:13:30.728Z,10.85
2022-08-20T12:16:13.829Z,10.10
2022-08-20T12:18:40.881Z,9.55
2022-08-20T12:21:08.248Z,11.05
2022-08-20T12:23:35.394Z,9.23
2022-08-20T12:26:03.458Z,10.93
2022-08-20T12:28:31.868Z,10.23
2022-08-20T12:30:59.229Z,9.52
2022-08-20T12:33:26.402Z,10.27
2022-08-20T12:35:53.558Z,10.10
2022-08-20T12:38:20.591Z,9.95
2022-08-20T12:40:47.608Z,9.32
2022-08-20T12:43:14.823Z,10.40
2022-08-20T12:45:42.131Z,10.88
2022-08-20T12:48:14.026Z,10.05
2022-08-20T12:50:43.591Z,11.65
2022-08-20T12:53:10.690Z,11.40
2022-08-20T12:55:37.758Z,12.05
2022-08-20T12:58:07.596Z,10.98
2022-08-20T13:00:38.147Z,17.55
2022-08-20T13:03:07.503Z,12.13
2022-08-20T13:05:35.979Z,13.40
2022-08-20T13:08:10.690Z,10.90
2022-08-20T13:10:44.599Z,11.25
2022-08-20T13:13:17.558Z,11.65
2022-08-20T13:15:50.623Z,10.77
2022-08-20T13:18:20.353Z,11.20
2022-08-20T13:20:47.572Z,10.10
2022-08-20T13:23:15.062Z,10.55
2022-08-20T13:25:42.159Z,11.10
2022-08-20T13:28:09.206Z,10.90
2022-08-20T13:30:41.124Z,11.07
2022-08-20T13:33:08.284Z,10.38
2022-08-20T13:35:35.370Z,10.00
2022-08-20T13:38:02.530Z,10.60
2022-08-20T13:40:29.664Z,10.50
2022-08-20T13:42:56.774Z,10.75
2022-08-20T13:45:23.870Z,10.63
2022-08-20T13:47:54.244Z,10.13
2022-08-20T13:50:24.328Z,10.07
2022-08-20T13:52:51.360Z,11.35
2022-08-20T13:55:21.697Z,10.73
2022-08-20T13:57:49.746Z,11.45
2022-08-20T14:00:28.122Z,10.60
2022-08-20T14:02:59.102Z,10.30
2022-08-20T14:05:26.192Z,10.48
2022-08-20T14:07:53.265Z,11.10
2022-08-20T14:10:25.515Z,10.98
2022-08-20T14:12:53.307Z,10.63
2022-08-20T14:15:20.421Z,10.60
2022-08-20T14:17:53.758Z,10.27
2022-08-20T14:20:24.707Z,10.18
2022-08-20T14:22:56.962Z,10.63
2022-08-20T14:25:25.522Z,10.95
2022-08-20T14:27:53.877Z,10.75
2022-08-20T14:30:27.365Z,10.32
2022-08-20T14:32:54.929Z,10.52
2022-08-20T14:35:22.984Z,10.90
2022-08-20T14:37:52.859Z,10.10
2022-08-20T14:40:22.071Z,11.30
2022-08-20T14:42:54.861Z,10.75
2022-08-20T14:45:22.771Z,11.13
2022-08-20T14:47:54.063Z,10.05
2022-08-20T14:52:57.278Z,10.10
2022-08-20T14:55:27.685Z,10.77
2022-08-20T14:57:54.874Z,11.40
2022-08-20T15:00:28.859Z,10.40
2022-08-20T15:02:56.968Z,11.50
2022-08-20T15:05:24.513Z,10.93
2022-08-20T15:07:54.059Z,10.18
2022-08-20T15:10:29.055Z,10.68
2022-08-20T15:12:56.653Z,9.93
2022-08-20T15:15:25.040Z,10.75
2022-08-20T15:17:55.521Z,10.18
2022-08-20T15:20:26.007Z,10.13
2022-08-20T15:22:54.240Z,10.13
2022-08-20T15:25:24.044Z,9.93
2022-08-20T15:27:51.881Z,9.23
2022-08-20T15:30:21.580Z,9.10
2022-08-20T15:32:54.502Z,10.13
2022-08-20T15:35:24.928Z,9.60
2022-08-20T15:37:54.679Z,8.95
2022-08-20T15:40:27.886Z,9.68
2022-08-20T15:42:56.623Z,8.50
2022-08-20T15:45:24.081Z,7.65
2022-08-20T15:48:06.990Z,7.95
2022-08-20T15:50:56.453Z,7.68
2022-08-20T15:53:37.787Z,7.10
2022-08-20T15:56:25.228Z,7.28
2022-08-20T15:59:13.237Z,6.55
2022-08-20T16:01:47.756Z,7.05
2022-08-20T16:04:24.328Z,6.78
2022-08-20T16:06:57.321Z,7.78
2022-08-20T16:09:34.197Z,6.72
2022-08-20T16:12:10.378Z,6.82
2022-08-20T16:14:41.149Z,7.53
2022-08-20T16:17:13.572Z,7.60
2022-08-20T16:20:02.541Z,7.60
2022-08-20T16:22:31.501Z,7.65
2022-08-20T16:24:58.657Z,7.50
2022-08-20T16:27:40.913Z,6.80
2022-08-20T16:30:12.083Z,6.30
2022-08-20T16:32:48.953Z,6.95
2022-08-20T16:35:30.193Z,6.63
2022-08-20T16:40:29.668Z,6.40
2022-08-20T16:43:02.433Z,6.50
2022-08-20T16:45:35.627Z,7.05
2022-08-20T16:48:05.923Z,7.18
2022-08-20T16:50:57.981Z,6.70
2022-08-20T16:53:26.516Z,7.18
2022-08-20T16:55:55.183Z,6.30
2022-08-20T16:58:22.247Z,6.50
2022-08-20T17:01:05.331Z,6.47
2022-08-20T17:03:40.330Z,7.20
2022-08-20T17:06:36.354Z,6.45
2022-08-20T17:09:09.955Z,7.50
2022-08-20T17:11:37.571Z,7.30
2022-08-20T17:14:16.997Z,7.45
2022-08-20T17:16:50.822Z,7.25
2022-08-20T17:19:30.115Z,7.72
2022-08-20T17:22:12.339Z,7.78
2022-08-20T17:24:40.329Z,7.63
2022-08-20T17:27:16.563Z,7.30
2022-08-20T17:29:54.821Z,7.28
2022-08-20T17:32:23.663Z,7.32
2022-08-20T17:34:54.485Z,7.15
2022-08-20T17:37:35.414Z,6.93
2022-08-20T17:40:46.160Z,7.57
2022-08-20T17:43:30.816Z,7.30
2022-08-20T17:46:01.092Z,7.32
2022-08-20T17:48:33.622Z,7.47
2022-08-20T17:51:08.857Z,7.18
2022-08-20T17:53:38.705Z,7.18
2022-08-20T17:56:26.524Z,7.32
2022-08-20T17:59:03.484Z,7.47
2022-08-20T18:01:34.916Z,7.38
2022-08-20T18:04:02.473Z,7.80
2022-08-20T18:06:37.381Z,7.40
2022-08-20T18:09:29.091Z,7.95
2022-08-20T18:12:21.533Z,7.50
2022-08-20T18:15:23.673Z,7.35
2022-08-20T18:18:06.646Z,8.35
2022-08-20T18:20:42.690Z,7.72
2022-08-20T18:23:19.322Z,8.68
2022-08-20T18:26:13.972Z,8.63
2022-08-20T18:28:51.317Z,8.77
2022-08-20T18:31:51.939Z,7.85
2022-08-20T18:34:33.667Z,8.30
2022-08-20T18:39:39.698Z,9.13
2022-08-20T18:42:11.065Z,8.43
2022-08-20T18:44:38.050Z,8.52
2022-08-20T18:47:18.631Z,8.50
2022-08-20T18:49:45.779Z,8.25
2022-08-20T18:52:18.422Z,8.45
2022-08-20T18:54:54.978Z,8.43
2022-08-20T18:57:34.066Z,9.27
2022-08-20T19:00:18.242Z,8.05
2022-08-20T19:03:06.949Z,8.18
2022-08-20T19:05:40.446Z,8.32
2022-08-20T19:08:08.093Z,8.63
2022-08-20T19:10:37.805Z,9.02
2022-08-20T19:13:08.437Z,8.88
2022-08-20T19:15:42.291Z,9.05
2022-08-20T19:18:12.272Z,21.70
2022-08-20T19:20:49.376Z,9.85
2022-08-20T19:23:24.252Z,8.85
2022-08-20T19:26:04.875Z,8.90
2022-08-20T19:28:40.332Z,9.57
2022-08-20T19:31:14.608Z,9.50
2022-08-20T19:33:44.759Z,8.63
2022-08-20T19:36:19.403Z,9.30
2022-08-20T19:38:52.508Z,9.45
2022-08-20T19:41:30.990Z,10.05
2022-08-20T19:44:00.494Z,8.93
2022-08-20T19:46:32.176Z,9.10
2022-08-20T19:49:16.504Z,9.85
2022-08-20T19:52:31.308Z,8.82
2022-08-20T19:55:03.614Z,8.10
2022-08-20T19:57:31.486Z,7.45
2022-08-20T20:00:09.729Z,7.53
2022-08-20T20:02:38.324Z,8.68
2022-08-20T20:05:10.224Z,8.27
2022-08-20T20:07:43.714Z,8.68
2022-08-20T20:10:24.088Z,8.60
2022-08-20T20:12:51.203Z,8.98
2022-08-20T20:15:18.997Z,8.45
2022-08-20T20:17:46.561Z,8.27
2022-08-20T20:20:19.697Z,8.85
2022-08-20T20:23:14.351Z,8.20
2022-08-20T20:25:45.276Z,7.80
2022-08-20T20:28:44.765Z,8.48
2022-08-20T20:31:17.367Z,8.63
2022-08-20T20:33:44.672Z,8.13
2022-08-20T20:36:30.379Z,7.55
2022-08-20T20:39:01.189Z,7.65
2022-08-20T20:41:29.761Z,8.10
2022-08-20T20:44:22.256Z,8.57
2022-08-20T20:46:57.508Z,7.50
2022-08-20T20:49:30.704Z,8.07
2022-08-20T20:52:15.291Z,8.52
2022-08-20T20:54:45.300Z,9.10
2022-08-20T20:57:15.954Z,9.13
2022-08-20T20:59:43.659Z,9.32
2022-08-20T21:02:10.863Z,9.27
2022-08-20T21:04:42.023Z,9.15
2022-08-20T21:07:14.800Z,9.18
2022-08-20T21:09:42.520Z,9.10
2022-08-20T21:12:11.484Z,8.68
2022-08-20T21:14:38.676Z,8.95
2022-08-20T21:17:07.850Z,8.70
2022-08-20T21:19:35.356Z,9.70
2022-08-20T21:22:12.342Z,8.73
2022-08-20T21:24:39.361Z,8.57
2022-08-20T21:27:07.336Z,8.93
2022-08-20T21:29:34.404Z,9.02
2022-08-20T21:32:01.537Z,7.68
2022-08-20T21:34:28.645Z,7.82
2022-08-20T21:36:56.369Z,7.68
2022-08-20T21:39:26.079Z,7.40
2022-08-20T21:41:55.230Z,7.78
2022-08-20T21:44:27.880Z,8.05
2022-08-20T21:46:57.071Z,7.85
2022-08-20T21:49:25.544Z,7.82
2022-08-20T21:51:53.779Z,7.22
2022-08-20T21:54:22.043Z,7.88
2022-08-20T21:57:04.971Z,11.00
2022-08-20T21:59:34.226Z,17.23
2022-08-20T22:02:01.587Z,7.13
2022-08-20T22:04:32.260Z,7.35
2022-08-20T22:07:02.577Z,7.18
2022-08-20T22:09:32.992Z,7.97
2022-08-20T22:12:02.315Z,10.50
2022-08-20T22:14:29.818Z,7.00
2022-08-20T22:16:57.029Z,6.88
2022-08-20T22:19:24.207Z,6.82
2022-08-20T22:21:53.285Z,7.63
2022-08-20T22:24:20.454Z,7.70
2022-08-20T22:26:47.406Z,7.43
2022-08-20T22:29:14.525Z,6.85
2022-08-20T22:31:43.297Z,6.88
2022-08-20T22:34:13.297Z,6.20
2022-08-20T22:36:40.803Z,8.10
2022-08-20T22:39:09.067Z,8.02
2022-08-20T22:41:36.379Z,7.25
2022-08-20T22:44:04.197Z,7.32
2022-08-20T22:46:37.006Z,13.27
2022-08-20T22:49:06.694Z,11.82
2022-08-20T22:51:36.765Z,8.48
2022-08-20T22:54:09.242Z,8.88
2022-08-20T22:56:37.271Z,9.55
2022-08-20T22:59:05.443Z,11.95
2022-08-20T23:01:32.787Z,11.73
2022-08-20T23:04:24.111Z,14.63
2022-08-20T23:06:51.619Z,15.27
2022-08-20T23:09:20.958Z,17.92
2022-08-20T23:11:48.969Z,23.27
2022-08-20T23:14:16.535Z,15.25
2022-08-20T23:16:48.262Z,13.98
2022-08-20T23:21:52.710Z,20.88
2022-08-20T23:24:19.952Z,12.23
2022-08-20T23:26:52.866Z,8.65
2022-08-20T23:29:21.837Z,7.43
2022-08-20T23:31:53.690Z,8.48
2022-08-20T23:34:20.808Z,11.57
2022-08-20T23:36:48.431Z,7.22
2022-08-20T23:39:15.490Z,6.22
2022-08-20T23:41:47.745Z,6.40
2022-08-20T23:44:26.179Z,8.70
2022-08-20T23:47:00.819Z,7.82
2022-08-20T23:49:29.145Z,6.68
2022-08-20T23:51:57.898Z,7.65
2022-08-20T23:54:25.041Z,7.78
2022-08-20T23:56:52.084Z,9.60
2022-08-20T23:59:24.687Z,8.35
